Time;durP1;ratioP1;P1;durP2;ratioP2;P2;SDS_P1;SDS_P2;PMS_P1;PMS_P2;Temp;Humidity;BMP_temperature;BMP_pressure;BME280_temperature;BME280_humidity;BME280_pressure;Samples;Min_cycle;Max_cycle;Signal;HPM_P1;HPM_P2
2024/01/08 00:00:42;;;;;;;18.15;8.10;;;;;;;-8.31;65.53;102399.03;6242000;23;20359;-64
2024/01/08 00:03:08;;;;;;;23.90;8.73;;;;;;;-8.29;64.44;102389.41;6242975;23;20016;-63
2024/01/08 00:05:39;;;;;;;24.98;8.88;;;;;;;-8.17;64.06;102394.84;6242465;23;20082;-65
2024/01/08 00:08:09;;;;;;;19.40;8.23;;;;;;;-7.94;64.62;102390.84;6241303;23;20023;-63
2024/01/08 00:10:39;;;;;;;20.15;7.35;;;;;;;-7.86;65.05;102395.34;6239132;23;20016;-63
2024/01/08 00:13:06;;;;;;;25.35;8.45;;;;;;;-8.40;63.90;102406.78;6239343;23;20016;-63
2024/01/08 00:15:33;;;;;;;23.48;8.88;;;;;;;-8.32;64.56;102395.53;6239200;23;20024;-62
2024/01/08 00:18:00;;;;;;;22.92;8.43;;;;;;;-8.42;65.50;102403.25;6238631;23;20031;-62
2024/01/08 00:20:27;;;;;;;18.35;8.40;;;;;;;-8.35;65.53;102405.09;6239953;23;20418;-63
2024/01/08 00:22:53;;;;;;;18.88;7.28;;;;;;;-8.35;66.08;102399.84;6239531;23;20306;-63
2024/01/08 00:25:23;;;;;;;23.80;8.77;;;;;;;-8.41;66.76;102395.38;6239224;23;20081;-63
2024/01/08 00:27:51;;;;;;;21.52;8.73;;;;;;;-8.15;66.44;102401.06;6239376;23;20027;-63
2024/01/08 00:30:18;;;;;;;22.23;7.97;;;;;;;-8.05;66.69;102400.34;6213875;23;20104;-63
2024/01/08 00:32:45;;;;;;;18.60;7.63;;;;;;;-8.24;66.43;102411.44;6239815;23;20087;-63
2024/01/08 00:35:14;;;;;;;22.13;9.40;;;;;;;-8.27;65.96;102404.34;6239737;23;20095;-64
2024/01/08 00:37:41;;;;;;;23.70;9.38;;;;;;;-8.09;66.75;102409.03;6239107;23;20030;-63
2024/01/08 00:40:09;;;;;;;18.55;7.90;;;;;;;-8.11;66.47;102401.97;6237797;22;20525;-62
2024/01/08 00:42:37;;;;;;;22.63;8.20;;;;;;;-8.03;67.02;102409.13;6238506;23;20099;-62
2024/01/08 00:45:04;;;;;;;20.08;8.23;;;;;;;-7.72;66.99;102405.19;6239659;23;20095;-62
2024/01/08 00:47:32;;;;;;;23.67;8.45;;;;;;;-8.13;66.47;102412.50;6237941;23;20035;-64
2024/01/08 00:50:00;;;;;;;18.13;7.88;;;;;;;-8.15;66.57;102408.06;6239056;23;20375;-62
2024/01/08 00:52:28;;;;;;;20.58;8.55;;;;;;;-8.31;66.95;102417.47;6238470;23;20024;-63
2024/01/08 00:54:57;;;;;;;20.52;9.05;;;;;;;-8.21;67.04;102408.84;6239182;23;20028;-62
2024/01/08 00:57:24;;;;;;;24.88;8.90;;;;;;;-8.26;67.33;102410.50;6242853;23;20482;-62
2024/01/08 00:59:50;;;;;;;20.50;7.95;;;;;;;-8.44;67.36;102418.09;6242428;23;20046;-62
2024/01/08 01:02:17;;;;;;;22.00;8.60;;;;;;;-8.39;69.09;102419.97;6241234;23;20406;-62
2024/01/08 01:04:43;;;;;;;23.50;8.80;;;;;;;-8.12;67.91;102414.25;6240294;23;20012;-63
2024/01/08 01:07:10;;;;;;;20.30;8.27;;;;;;;-8.26;67.26;102413.13;6212654;23;20016;-62
2024/01/08 01:09:37;;;;;;;19.33;8.73;;;;;;;-7.97;67.63;102430.31;6241083;23;20024;-62
2024/01/08 01:12:04;;;;;;;23.50;8.52;;;;;;;-7.98;67.52;102431.16;6241659;23;20016;-62
2024/01/08 01:14:30;;;;;;;23.23;8.88;;;;;;;-8.26;66.38;102431.56;6239641;23;20016;-62
2024/01/08 01:16:57;;;;;;;19.25;9.00;;;;;;;-8.12;67.54;102429.16;6240955;23;20028;-62
2024/01/08 01:19:23;;;;;;;21.85;9.35;;;;;;;-8.12;66.94;102434.44;6215473;23;20027;-63
2024/01/08 01:21:50;;;;;;;20.67;8.75;;;;;;;-8.25;67.13;102433.34;6241364;23;20031;-62
2024/01/08 01:24:18;;;;;;;19.42;7.88;;;;;;;-8.13;67.13;102432.66;6240060;23;20074;-63
2024/01/08 01:26:45;;;;;;;23.67;8.90;;;;;;;-7.83;67.15;102432.25;6241069;23;20537;-64
2024/01/08 01:29:11;;;;;;;19.92;8.20;;;;;;;-8.19;66.14;102442.22;6242298;23;20087;-64
2024/01/08 01:31:38;;;;;;;20.20;8.55;;;;;;;-8.22;67.06;102439.53;6242192;23;20086;-63
2024/01/08 01:34:06;;;;;;;18.75;7.95;;;;;;;-8.19;66.38;102433.44;6242357;23;20027;-63
2024/01/08 01:36:35;;;;;;;22.45;9.00;;;;;;;-8.09;65.93;102435.34;6242536;23;20095;-62
2024/01/08 01:39:05;;;;;;;20.08;7.82;;;;;;;-8.25;67.42;102436.00;6241486;23;20024;-63
2024/01/08 01:41:32;;;;;;;24.75;8.60;;;;;;;-8.24;66.90;102441.28;6271713;22;20024;-63
2024/01/08 01:43:59;;;;;;;19.38;7.93;;;;;;;-8.50;67.71;102438.19;6271467;22;20037;-64
2024/01/08 01:46:50;;;;;;;26.17;9.10;;;;;;;-8.48;67.94;102438.22;6271721;22;20022;-63
2024/01/08 01:49:23;;;;;;;22.23;8.27;;;;;;;-8.59;68.04;102451.19;6273022;22;20019;-63
2024/01/08 01:51:50;;;;;;;20.42;8.70;;;;;;;-8.55;68.55;102449.47;6272896;22;20075;-63
2024/01/08 01:54:21;;;;;;;19.33;8.32;;;;;;;-8.25;68.09;102450.03;6272695;22;20024;-63
2024/01/08 01:56:52;;;;;;;18.55;7.45;;;;;;;-8.68;67.85;102452.75;6274012;22;20027;-63
2024/01/08 01:59:20;;;;;;;21.25;8.90;;;;;;;-8.62;68.98;102456.41;6272313;22;20078;-63
2024/01/08 02:01:47;;;;;;;24.17;8.35;;;;;;;-8.22;68.07;102454.44;6273649;22;20531;-62
2024/01/08 02:04:15;;;;;;;26.30;8.02;;;;;;;-8.55;68.22;102447.72;6271859;22;20016;-63
2024/01/08 02:07:29;;;;;;;25.67;9.82;;;;;;;-8.50;67.94;102448.72;6275574;22;20100;-62
2024/01/08 02:10:05;;;;;;;21.15;7.97;;;;;;;-8.58;67.26;102450.31;6272842;22;20020;-64
2024/01/08 02:12:31;;;;;;;19.30;8.15;;;;;;;-8.46;68.70;102449.66;6273513;22;20019;-63
2024/01/08 02:14:58;;;;;;;22.17;8.25;;;;;;;-8.62;67.72;102450.25;6274037;22;20077;-63
2024/01/08 02:17:24;;;;;;;16.98;7.97;;;;;;;-8.56;67.84;102448.59;6273192;22;20655;-64
2024/01/08 02:19:51;;;;;;;20.85;8.23;;;;;;;-8.42;66.43;102445.34;6273576;22;20102;-62
2024/01/08 02:22:18;;;;;;;21.45;8.48;;;;;;;-8.30;66.60;102456.94;6271734;22;20034;-63
2024/01/08 02:24:44;;;;;;;20.75;7.32;;;;;;;-8.68;67.08;102464.16;6273035;22;20016;-63
2024/01/08 02:27:12;;;;;;;21.55;7.95;;;;;;;-8.72;66.86;102464.97;6272789;22;20451;-63
2024/01/08 02:29:38;;;;;;;23.92;8.60;;;;;;;-8.71;66.98;102464.13;6273208;22;20454;-63
2024/01/08 02:32:07;;;;;;;22.20;8.02;;;;;;;-8.59;66.32;102463.44;6271910;22;20031;-64
2024/01/08 02:34:33;;;;;;;21.27;7.28;;;;;;;-8.58;66.39;102460.84;6273747;22;20073;-63
2024/01/08 02:37:00;;;;;;;19.60;7.85;;;;;;;-8.75;66.29;102468.41;6273011;22;20024;-63
2024/01/08 02:39:27;;;;;;;18.48;7.55;;;;;;;-8.82;65.98;102470.88;6268314;22;20024;-63
2024/01/08 02:41:54;;;;;;;20.27;8.23;;;;;;;-8.75;66.35;102480.69;6241455;23;20463;-63
2024/01/08 02:44:20;;;;;;;21.13;8.05;;;;;;;-8.78;65.78;102480.63;6242294;23;20036;-61
2024/01/08 02:46:47;;;;;;;22.42;8.20;;;;;;;-8.70;65.72;102480.78;6241588;23;20474;-62
2024/01/08 02:49:13;;;;;;;22.77;8.35;;;;;;;-8.67;65.40;102486.09;6242040;23;20039;-62
2024/01/08 02:51:40;;;;;;;20.05;7.85;;;;;;;-8.63;64.95;102491.44;6242066;23;20024;-63
2024/01/08 02:54:07;;;;;;;19.35;7.80;;;;;;;-8.80;65.72;102498.13;6241535;23;20101;-62
2024/01/08 02:56:33;;;;;;;19.77;7.68;;;;;;;-8.76;65.63;102498.19;6242523;23;20072;-63
2024/01/08 02:59:05;;;;;;;17.90;6.88;;;;;;;-8.72;64.83;102504.44;6242635;23;20039;-62
2024/01/08 03:01:33;;;;;;;18.23;7.45;;;;;;;-8.91;64.88;102513.69;6241727;23;20024;-62
2024/01/08 03:03:59;;;;;;;21.30;8.25;;;;;;;-8.82;64.84;102499.81;6241698;23;20024;-62
2024/01/08 03:06:26;;;;;;;22.77;7.65;;;;;;;-8.77;65.54;102506.94;6242285;23;20517;-63
2024/01/08 03:08:53;;;;;;;18.85;8.32;;;;;;;-8.84;65.03;102510.31;6240430;23;20027;-62
2024/01/08 03:11:19;;;;;;;16.13;6.88;;;;;;;-8.94;65.17;102512.72;6239190;23;20020;-62
2024/01/08 03:13:46;;;;;;;21.30;7.43;;;;;;;-8.91;65.27;102523.28;6241751;23;20469;-62
2024/01/08 03:16:12;;;;;;;17.10;6.80;;;;;;;-8.98;65.47;102510.91;6241026;23;20028;-62
2024/01/08 03:18:39;;;;;;;22.27;8.18;;;;;;;-8.98;65.04;102524.03;6240833;23;20024;-62
2024/01/08 03:21:06;;;;;;;13.82;6.95;;;;;;;-8.92;65.40;102521.50;6214164;23;20031;-64
2024/01/08 03:23:33;;;;;;;23.65;7.05;;;;;;;-9.11;65.10;102525.50;6242248;23;20046;-64
2024/01/08 03:25:59;;;;;;;19.77;8.07;;;;;;;-8.99;65.71;102530.16;6242748;23;20024;-63
2024/01/08 03:28:26;;;;;;;23.15;7.20;;;;;;;-8.92;65.82;102519.78;6242415;23;20020;-61
2024/01/08 03:30:52;;;;;;;17.58;7.40;;;;;;;-8.78;66.28;102528.84;6241810;23;20020;-63
2024/01/08 03:33:19;;;;;;;19.73;7.53;;;;;;;-8.83;65.57;102526.97;6215605;23;20082;-63
2024/01/08 03:35:46;;;;;;;18.17;7.25;;;;;;;-8.94;65.16;102528.50;6242418;23;20024;-63
2024/01/08 03:38:13;;;;;;;23.13;8.05;;;;;;;-9.06;65.77;102534.38;6241643;23;20083;-62
2024/01/08 03:40:39;;;;;;;19.10;8.10;;;;;;;-8.99;66.20;102541.56;6241898;22;20030;-62
2024/01/08 03:43:06;;;;;;;21.38;7.35;;;;;;;-8.86;65.92;102542.69;6241990;23;20035;-63
2024/01/08 03:45:32;;;;;;;20.92;7.25;;;;;;;-8.88;66.09;102549.66;6242662;23;20028;-64
2024/01/08 03:47:59;;;;;;;17.02;7.07;;;;;;;-9.01;65.93;102547.63;6242711;23;20031;-63
2024/01/08 03:50:25;;;;;;;17.02;7.10;;;;;;;-9.06;65.42;102561.56;6242262;23;20016;-63
2024/01/08 03:52:52;;;;;;;22.10;7.68;;;;;;;-9.15;65.50;102563.09;6242028;23;20031;-62
2024/01/08 03:55:19;;;;;;;17.27;7.07;;;;;;;-9.08;66.27;102567.66;6215593;23;20463;-62
2024/01/08 03:57:45;;;;;;;19.17;7.50;;;;;;;-9.02;65.49;102558.97;6242247;23;20020;-62
2024/01/08 04:00:12;;;;;;;16.88;6.93;;;;;;;-9.17;65.38;102560.44;6242164;23;20035;-62
2024/01/08 04:02:40;;;;;;;17.85;7.07;;;;;;;-9.07;65.92;102572.94;6242298;23;20020;-62
2024/01/08 04:05:10;;;;;;;21.67;7.55;;;;;;;-9.15;65.61;102570.97;6242493;23;20454;-62
2024/01/08 04:07:38;;;;;;;17.20;7.38;;;;;;;-9.16;66.25;102575.34;6241726;23;20046;-61
2024/01/08 04:10:05;;;;;;;17.67;7.53;;;;;;;-9.19;66.06;102574.38;6242839;23;20024;-64
2024/01/08 04:12:31;;;;;;;19.80;6.93;;;;;;;-9.16;66.35;102580.59;6242300;23;20020;-63
2024/01/08 04:14:58;;;;;;;17.30;7.03;;;;;;;-9.20;66.31;102584.00;6243238;23;20086;-63
2024/01/08 04:17:26;;;;;;;21.75;7.53;;;;;;;-9.18;66.70;102582.31;6241942;23;20020;-64
2024/01/08 04:19:53;;;;;;;22.90;7.97;;;;;;;-8.92;66.81;102584.63;6241898;23;20111;-63
2024/01/08 04:22:19;;;;;;;22.63;7.78;;;;;;;-8.77;66.04;102584.94;6241910;23;20048;-62
2024/01/08 04:24:46;;;;;;;21.70;8.10;;;;;;;-8.93;65.48;102586.34;6242332;23;20454;-62
2024/01/08 04:27:12;;;;;;;20.52;7.38;;;;;;;-9.11;65.41;102589.47;6242352;23;20051;-62
2024/01/08 04:29:39;;;;;;;20.17;7.88;;;;;;;-9.10;66.19;102590.34;6242270;23;20020;-62
2024/01/08 04:32:05;;;;;;;19.58;8.13;;;;;;;-9.16;65.89;102591.13;6242321;23;20099;-62
2024/01/08 04:34:32;;;;;;;20.98;7.75;;;;;;;-9.14;66.16;102602.53;6242098;23;20016;-62
2024/01/08 04:36:59;;;;;;;20.38;8.18;;;;;;;-8.99;66.43;102602.03;6242851;23;20094;-62
2024/01/08 04:39:25;;;;;;;20.40;7.25;;;;;;;-8.94;65.48;102596.84;6242108;22;20024;-62
2024/01/08 04:41:52;;;;;;;23.60;8.27;;;;;;;-9.00;66.30;102602.88;6242361;23;20031;-62
2024/01/08 04:44:19;;;;;;;18.70;7.57;;;;;;;-9.09;65.65;102608.81;6242103;23;20024;-61
2024/01/08 04:46:46;;;;;;;25.05;8.48;;;;;;;-8.99;65.52;102609.00;6241787;23;20075;-61
2024/01/08 04:49:12;;;;;;;21.40;8.27;;;;;;;-9.02;65.54;102598.41;6241548;23;20024;-62
2024/01/08 04:51:39;;;;;;;20.45;7.68;;;;;;;-9.11;65.76;102610.50;6241496;23;20021;-61
2024/01/08 04:54:07;;;;;;;17.23;8.40;;;;;;;-9.16;66.11;102620.03;6241945;23;20534;-61
2024/01/08 04:56:33;;;;;;;25.83;8.20;;;;;;;-9.08;66.13;102628.97;6242510;23;20355;-65
2024/01/08 04:59:00;;;;;;;24.95;8.38;;;;;;;-9.07;66.17;102628.13;6243015;23;20032;-62
2024/01/08 05:01:27;;;;;;;23.50;8.30;;;;;;;-9.04;65.73;102632.56;6241356;23;20416;-61
2024/01/08 05:03:53;;;;;;;18.08;7.93;;;;;;;-9.00;65.40;102628.25;6241756;23;20462;-62
2024/01/08 05:06:20;;;;;;;22.77;7.15;;;;;;;-9.14;66.13;102634.09;6241990;23;20028;-61
2024/01/08 05:08:47;;;;;;;19.38;7.35;;;;;;;-9.07;66.14;102635.13;6241710;23;20051;-61
2024/01/08 05:11:13;;;;;;;18.98;8.05;;;;;;;-9.01;66.04;102634.34;6242028;23;20093;-64
2024/01/08 05:13:40;;;;;;;18.02;7.97;;;;;;;-9.11;66.12;102628.88;6242048;23;20323;-61
2024/01/08 05:16:07;;;;;;;17.15;7.47;;;;;;;-8.95;66.64;102634.50;6241614;23;20048;-62
2024/01/08 05:18:34;;;;;;;19.08;7.35;;;;;;;-9.10;66.37;102642.91;6241855;23;20020;-62
2024/01/08 05:21:04;;;;;;;18.98;7.30;;;;;;;-8.76;66.84;102634.06;6242434;23;20035;-63
2024/01/08 05:23:34;;;;;;;19.38;8.50;;;;;;;-8.93;65.80;102640.69;6241296;23;20095;-62
2024/01/08 05:26:01;;;;;;;16.80;7.38;;;;;;;-8.95;66.64;102647.66;6241922;23;20029;-62
2024/01/08 05:28:28;;;;;;;21.27;8.98;;;;;;;-9.06;66.85;102637.78;6242195;23;20031;-62
2024/01/08 05:30:55;;;;;;;16.85;7.65;;;;;;;-9.08;66.26;102642.13;6215613;23;20098;-61
2024/01/08 05:33:22;;;;;;;24.08;8.07;;;;;;;-9.18;66.47;102645.38;6241422;23;20026;-63
2024/01/08 05:35:49;;;;;;;20.30;7.93;;;;;;;-9.22;66.80;102629.50;6243140;23;20481;-63
2024/01/08 05:38:16;;;;;;;18.63;8.02;;;;;;;-9.11;67.48;102646.41;6242904;23;20047;-62
2024/01/08 05:40:43;;;;;;;24.27;8.50;;;;;;;-9.10;67.33;102641.16;6236245;22;20035;-61
2024/01/08 05:43:09;;;;;;;22.35;8.70;;;;;;;-9.02;66.83;102643.97;6273875;22;20027;-63
2024/01/08 05:45:36;;;;;;;19.23;8.13;;;;;;;-9.11;67.09;102642.03;6274133;22;20074;-62
2024/01/08 05:48:02;;;;;;;21.08;8.45;;;;;;;-9.13;66.93;102646.38;6274518;22;20023;-65
2024/01/08 05:50:29;;;;;;;23.08;9.32;;;;;;;-9.14;67.28;102644.59;6275145;22;20393;-63
2024/01/08 05:52:56;;;;;;;19.10;8.23;;;;;;;-9.14;67.75;102641.97;6274121;22;20047;-63
2024/01/08 05:55:23;;;;;;;18.95;8.20;;;;;;;-9.06;68.14;102645.66;6274928;22;20039;-63
2024/01/08 05:57:51;;;;;;;18.70;8.20;;;;;;;-9.17;67.21;102656.78;6273897;22;20019;-63
2024/01/08 06:00:18;;;;;;;20.33;7.45;;;;;;;-9.22;67.03;102659.28;6274737;22;20023;-63
2024/01/08 06:02:45;;;;;;;22.42;7.85;;;;;;;-9.21;67.21;102665.44;6273977;22;20062;-63
2024/01/08 06:05:11;;;;;;;18.95;8.00;;;;;;;-9.05;67.75;102668.47;6274537;22;20032;-63
2024/01/08 06:07:43;;;;;;;19.77;7.95;;;;;;;-9.19;67.76;102672.53;6273657;22;20030;-62
2024/01/08 06:10:09;;;;;;;19.30;8.15;;;;;;;-9.21;67.40;102671.56;6274046;22;20426;-62
2024/01/08 06:12:37;;;;;;;20.67;7.70;;;;;;;-9.18;67.89;102674.28;6274940;22;20023;-63
2024/01/08 06:15:05;;;;;;;24.55;9.35;;;;;;;-9.12;68.48;102673.53;6274106;22;20020;-63
2024/01/08 06:17:31;;;;;;;23.50;8.77;;;;;;;-9.10;68.40;102677.97;6273138;22;20039;-65
2024/01/08 06:19:58;;;;;;;20.08;7.75;;;;;;;-9.16;68.12;102683.09;6274812;22;20023;-63
2024/01/08 06:22:26;;;;;;;19.58;8.25;;;;;;;-9.20;68.01;102682.97;6247969;22;20067;-63
2024/01/08 06:24:52;;;;;;;23.13;8.50;;;;;;;-9.02;68.19;102700.94;6274178;22;20350;-63
2024/01/08 06:27:19;;;;;;;22.10;8.80;;;;;;;-9.21;68.81;102697.84;6274146;22;20034;-63
2024/01/08 06:29:45;;;;;;;21.58;8.55;;;;;;;-9.15;69.24;102698.00;6273996;22;20088;-63
2024/01/08 06:32:12;;;;;;;19.80;7.40;;;;;;;-9.15;68.86;102695.38;6274625;22;20054;-63
2024/01/08 06:34:39;;;;;;;25.60;9.93;;;;;;;-9.20;69.11;102694.38;6274816;22;20078;-63
2024/01/08 06:37:05;;;;;;;20.25;7.93;;;;;;;-9.16;68.53;102704.13;6274814;22;20442;-63
2024/01/08 06:39:33;;;;;;;22.20;7.97;;;;;;;-9.05;68.69;102709.63;6268389;22;20091;-63
2024/01/08 06:41:59;;;;;;;20.80;9.10;;;;;;;-9.15;68.81;102700.63;6244936;23;20031;-64
2024/01/08 06:44:28;;;;;;;23.83;8.85;;;;;;;-9.19;69.85;102711.94;6242341;23;20079;-63
2024/01/08 06:46:55;;;;;;;21.48;8.90;;;;;;;-9.01;69.16;102718.47;6242579;23;20406;-63
2024/01/08 06:49:22;;;;;;;26.15;9.43;;;;;;;-9.15;69.98;102708.53;6243686;23;20024;-63
2024/01/08 06:51:49;;;;;;;23.80;9.40;;;;;;;-9.14;70.07;102714.66;6243392;23;20043;-63
2024/01/08 06:54:15;;;;;;;32.30;10.65;;;;;;;-9.10;69.91;102722.66;6243816;23;20344;-62
2024/01/08 06:56:42;;;;;;;27.63;10.07;;;;;;;-9.13;70.24;102719.94;6244110;23;20086;-63
2024/01/08 06:59:08;;;;;;;26.38;9.00;;;;;;;-9.10;70.78;102733.16;6243541;23;20100;-63
2024/01/08 07:01:35;;;;;;;22.88;9.60;;;;;;;-9.13;70.57;102733.09;6243072;23;20354;-64
2024/01/08 07:04:02;;;;;;;20.52;9.05;;;;;;;-9.13;71.48;102738.34;6242367;23;20095;-63
2024/01/08 07:06:28;;;;;;;22.60;9.73;;;;;;;-9.16;71.95;102740.91;6244213;23;20024;-62
2024/01/08 07:08:55;;;;;;;25.33;8.25;;;;;;;-9.24;71.37;102741.56;6242873;23;20458;-63
2024/01/08 07:11:23;;;;;;;30.92;11.27;;;;;;;-9.17;71.53;102747.03;6242366;23;20020;-62
2024/01/08 07:13:51;;;;;;;23.70;9.82;;;;;;;-9.15;72.18;102750.56;6241665;23;20150;-63
2024/01/08 07:16:18;;;;;;;24.20;9.10;;;;;;;-9.26;72.65;102757.31;6242524;23;20034;-62
2024/01/08 07:18:45;;;;;;;27.42;9.75;;;;;;;-9.25;72.98;102759.06;6242635;23;20363;-62
2024/01/08 07:21:16;;;;;;;24.88;10.82;;;;;;;-9.21;72.90;102760.03;6242407;23;20044;-63
2024/01/08 07:23:48;;;;;;;23.13;9.35;;;;;;;-9.15;73.21;102754.94;6242712;23;20046;-62
2024/01/08 07:26:16;;;;;;;30.92;11.60;;;;;;;-9.04;72.90;102762.22;6242669;23;20031;-63
2024/01/08 07:28:46;;;;;;;25.20;9.13;;;;;;;-9.14;72.70;102767.22;6243049;23;20096;-63
2024/01/08 07:31:15;;;;;;;27.42;10.50;;;;;;;-9.10;72.19;102759.44;6243068;23;20028;-62
2024/01/08 07:33:42;;;;;;;31.13;10.85;;;;;;;-9.19;73.39;102764.50;6242798;23;20016;-63
2024/01/08 07:36:09;;;;;;;25.05;10.30;;;;;;;-9.16;72.92;102769.81;6242783;23;20028;-63
2024/01/08 07:38:37;;;;;;;29.92;10.45;;;;;;;-9.19;72.58;102764.50;6241867;23;20023;-64
2024/01/08 07:41:04;;;;;;;31.10;10.95;;;;;;;-9.10;72.85;102764.69;6242354;22;20078;-63
2024/01/08 07:43:31;;;;;;;22.95;8.70;;;;;;;-9.06;72.09;102777.09;6242668;23;20027;-64
2024/01/08 07:45:58;;;;;;;26.35;10.48;;;;;;;-9.19;73.11;102784.59;6243937;23;20094;-63
2024/01/08 07:48:24;;;;;;;32.22;10.90;;;;;;;-9.24;73.46;102779.25;6243382;23;20020;-62
2024/01/08 07:50:51;;;;;;;24.88;10.35;;;;;;;-9.22;73.57;102785.41;6242903;23;20158;-63
2024/01/08 07:53:18;;;;;;;28.77;9.63;;;;;;;-9.17;73.71;102789.06;6242970;23;20027;-63
2024/01/08 07:55:44;;;;;;;34.80;11.32;;;;;;;-9.11;73.77;102794.47;6242535;23;20031;-63
2024/01/08 07:58:14;;;;;;;22.95;9.98;;;;;;;-9.18;73.65;102781.16;6241915;23;20024;-62
2024/01/08 08:00:42;;;;;;;;;;;;;;;-9.22;73.62;102790.69;6241665;23;20327;-63
2024/01/08 08:03:08;;;;;;;31.33;10.40;;;;;;;-9.19;73.88;102796.03;6239626;23;19950;-63
2024/01/08 08:05:35;;;;;;;25.73;9.60;;;;;;;-9.07;73.95;102791.09;6241965;23;20351;-64
2024/01/08 08:08:02;;;;;;;32.42;10.43;;;;;;;-9.16;73.26;102801.34;6242631;23;20424;-63
2024/01/08 08:10:29;;;;;;;26.45;9.77;;;;;;;-9.09;72.95;102805.94;6243923;23;20333;-63
2024/01/08 08:12:56;;;;;;;23.95;9.77;;;;;;;-9.04;73.35;102816.53;6243093;23;20475;-64
2024/01/08 08:15:22;;;;;;;28.15;10.05;;;;;;;-9.04;72.95;102808.66;6242941;23;20082;-63
2024/01/08 08:17:50;;;;;;;27.77;9.80;;;;;;;-8.98;73.82;102815.84;6242963;23;20054;-63
2024/01/08 08:20:20;;;;;;;26.20;9.50;;;;;;;-9.10;73.20;102822.53;6241683;23;20032;-63
2024/01/08 08:22:47;;;;;;;33.20;11.13;;;;;;;-9.03;73.60;102823.59;6242672;23;20472;-64
2024/01/08 08:25:18;;;;;;;18.48;9.30;;;;;;;-8.92;72.92;102827.38;6243066;23;20028;-63
2024/01/08 08:27:44;;;;;;;29.20;10.23;;;;;;;-9.05;73.14;102833.19;6242453;23;20074;-63
2024/01/08 08:30:16;;;;;;;31.17;10.05;;;;;;;-8.95;73.28;102842.19;6242411;23;20028;-63
2024/01/08 08:32:42;;;;;;;22.38;9.85;;;;;;;-8.87;72.58;102845.91;6243447;23;20024;-63
2024/01/08 08:35:09;;;;;;;27.95;10.20;;;;;;;-8.98;73.16;102850.00;6242425;23;20035;-63
2024/01/08 08:37:36;;;;;;;26.42;9.82;;;;;;;-8.88;73.03;102859.91;6243033;23;20355;-63
2024/01/08 08:40:18;;;;;;;23.63;9.43;;;;;;;-8.90;73.19;102869.50;6242415;22;20107;-63
2024/01/08 08:42:45;;;;;;;22.77;9.88;;;;;;;-8.89;73.29;102863.41;6242096;23;20494;-63
2024/01/08 08:45:12;;;;;;;23.35;9.05;;;;;;;-8.85;73.09;102866.13;6242230;23;20091;-63
2024/01/08 08:47:39;;;;;;;23.27;9.80;;;;;;;-8.72;73.35;102872.59;6240866;23;20020;-62
2024/01/08 08:50:06;;;;;;;25.30;9.80;;;;;;;-8.73;73.22;102869.91;6241457;23;20075;-64
2024/01/08 08:52:33;;;;;;;24.38;9.82;;;;;;;-8.79;72.55;102868.94;6241360;23;20510;-64
2024/01/08 08:55:00;;;;;;;26.77;10.35;;;;;;;-8.77;73.22;102877.72;6242633;23;20024;-63
2024/01/08 08:57:26;;;;;;;21.58;8.93;;;;;;;-8.72;72.86;102879.56;6215814;23;20488;-64
2024/01/08 08:59:53;;;;;;;23.42;9.40;;;;;;;-8.74;72.74;102882.19;6242329;23;20055;-62
2024/01/08 09:02:19;;;;;;;21.77;8.18;;;;;;;-8.66;73.23;102878.00;6241341;23;20024;-63
2024/01/08 09:04:47;;;;;;;19.77;9.18;;;;;;;-8.70;72.30;102884.06;6242030;23;20091;-63
2024/01/08 09:07:13;;;;;;;20.80;9.65;;;;;;;-8.70;72.38;102886.69;6239996;23;20482;-63
2024/01/08 09:09:42;;;;;;;21.17;9.15;;;;;;;-8.69;72.77;102884.94;6242246;23;20342;-62
2024/01/08 09:12:09;;;;;;;23.70;8.70;;;;;;;-8.60;72.51;102883.44;6243170;23;20020;-63
2024/01/08 09:14:36;;;;;;;26.52;10.23;;;;;;;-8.82;73.62;102886.34;6242956;23;20017;-63
2024/01/08 09:17:03;;;;;;;20.85;8.45;;;;;;;-8.84;72.78;102903.81;6243915;23;20024;-63
2024/01/08 09:19:29;;;;;;;22.75;9.20;;;;;;;-8.76;72.63;102895.28;6243767;23;20020;-63
2024/01/08 09:21:56;;;;;;;21.25;8.65;;;;;;;-8.66;71.92;102904.31;6242519;23;20028;-62
2024/01/08 09:24:23;;;;;;;26.63;8.73;;;;;;;-8.63;72.05;102903.50;6243771;23;20024;-63
2024/01/08 09:26:51;;;;;;;23.20;9.52;;;;;;;-8.50;71.92;102906.47;6244280;23;20035;-62
2024/01/08 09:29:18;;;;;;;21.02;8.23;;;;;;;-8.64;71.53;102904.34;6244347;23;20024;-64
2024/01/08 09:31:45;;;;;;;21.02;8.88;;;;;;;-8.65;72.24;102910.47;6243808;23;20024;-63
2024/01/08 09:34:12;;;;;;;21.13;8.70;;;;;;;-8.58;71.89;102913.28;6243820;23;20028;-64
2024/01/08 09:36:38;;;;;;;25.67;8.60;;;;;;;-8.59;72.07;102906.25;6216992;23;20026;-62
2024/01/08 09:39:05;;;;;;;21.90;8.98;;;;;;;-8.44;71.59;102908.41;6216826;22;20020;-66
2024/01/08 09:41:32;;;;;;;20.50;8.60;;;;;;;-8.33;71.40;102914.81;6242810;23;20016;-63
2024/01/08 09:44:02;;;;;;;19.38;7.70;;;;;;;-8.37;70.48;102919.94;6217530;23;20073;-63
2024/01/08 09:46:39;;;;;;;21.70;8.40;;;;;;;-8.46;71.27;102920.59;6243222;23;20399;-63
2024/01/08 09:49:08;;;;;;;21.88;8.68;;;;;;;-8.34;71.30;102927.94;6243471;23;20399;-64
2024/01/08 09:51:34;;;;;;;23.70;8.23;;;;;;;-8.35;71.55;102921.78;6243225;23;20020;-62
2024/01/08 09:54:03;;;;;;;24.70;8.65;;;;;;;-8.20;70.27;102921.25;6244295;23;20020;-62
2024/01/08 09:56:30;;;;;;;20.85;8.70;;;;;;;-8.10;70.31;102925.88;6243940;23;20021;-62
2024/01/08 09:58:57;;;;;;;20.80;8.02;;;;;;;-7.72;69.02;102928.50;6244504;23;20027;-63
2024/01/08 10:01:23;;;;;;;20.50;8.52;;;;;;;-7.86;68.65;102911.50;6243325;23;20020;-62
2024/01/08 10:03:50;;;;;;;18.10;7.95;;;;;;;-7.36;68.01;102915.25;6243513;23;20078;-62
2024/01/08 10:06:16;;;;;;;24.70;7.70;;;;;;;-7.39;66.56;102918.72;6242844;23;20020;-62
2024/01/08 10:08:43;;;;;;;15.95;7.15;;;;;;;-6.95;65.74;102918.72;6243945;23;20036;-63
2024/01/08 10:11:11;;;;;;;19.90;7.75;;;;;;;-7.28;64.68;102918.94;6241768;23;20123;-63
2024/01/08 10:13:39;;;;;;;21.77;7.57;;;;;;;-7.41;66.12;102922.19;6244017;23;20371;-65
2024/01/08 10:16:07;;;;;;;18.67;7.85;;;;;;;-6.60;64.11;102913.16;6243099;23;20027;-64
2024/01/08 10:18:35;;;;;;;17.35;7.95;;;;;;;-6.33;62.89;102918.00;6242650;23;20082;-63
2024/01/08 10:21:10;;;;;;;13.55;6.43;;;;;;;-6.89;63.96;102910.88;6216467;23;20028;-65
2024/01/08 10:23:37;;;;;;;18.50;6.95;;;;;;;-5.99;61.32;102907.13;6243158;23;20024;-63
2024/01/08 10:26:04;;;;;;;15.85;7.25;;;;;;;-5.97;60.70;102918.59;6242313;23;20398;-64
2024/01/08 10:28:37;;;;;;;14.13;7.10;;;;;;;-5.61;60.11;102912.06;6243195;23;20023;-63
2024/01/08 10:31:05;;;;;;;17.27;7.25;;;;;;;-6.31;61.41;102906.59;6243398;23;20024;-64
2024/01/08 10:33:33;;;;;;;17.42;7.25;;;;;;;-6.75;61.84;102906.75;6243306;23;20024;-63
2024/01/08 10:36:01;;;;;;;19.77;7.60;;;;;;;-6.26;61.24;102897.03;6244370;23;20020;-62
2024/01/08 10:38:31;;;;;;;15.43;6.65;;;;;;;-6.20;60.14;102897.13;6242969;23;20040;-62
2024/01/08 10:41:00;;;;;;;16.67;6.05;;;;;;;-6.61;60.32;102903.44;6242938;22;20024;-62
2024/01/08 10:43:30;;;;;;;16.63;7.03;;;;;;;-6.72;60.67;102899.75;6216375;23;20361;-62
2024/01/08 10:45:59;;;;;;;13.50;6.32;;;;;;;-6.86;60.75;102894.22;6242177;23;20027;-63
2024/01/08 10:48:47;;;;;;;15.45;6.40;;;;;;;-6.77;60.93;102897.91;6242004;23;20024;-63
2024/01/08 10:51:16;;;;;;;15.52;6.82;;;;;;;-6.49;60.66;102901.94;6241585;23;20462;-63
2024/01/08 10:53:46;;;;;;;13.18;6.55;;;;;;;-6.25;59.42;102898.78;6242552;23;20028;-62
2024/01/08 10:56:20;;;;;;;15.20;5.75;;;;;;;-6.37;58.81;102898.59;6241701;23;20031;-62
2024/01/08 10:59:09;;;;;;;16.33;6.78;;;;;;;-6.69;58.88;102895.41;6242097;23;20454;-63
2024/01/08 11:01:37;;;;;;;19.00;6.90;;;;;;;-6.55;58.32;102909.75;6241762;23;20398;-63
2024/01/08 11:04:06;;;;;;;19.38;6.65;;;;;;;-6.05;57.72;102907.03;6242380;23;20023;-64
2024/01/08 11:06:38;;;;;;;14.48;6.07;;;;;;;-6.41;57.58;102907.31;6242777;23;20079;-65
2024/01/08 11:09:25;;;;;;;13.82;5.85;;;;;;;-6.36;56.92;102905.66;6242720;23;20436;-64
2024/01/08 11:11:52;;;;;;;14.07;6.05;;;;;;;-6.54;57.60;102907.97;6215629;23;20028;-64
2024/01/08 11:14:19;;;;;;;17.52;6.80;;;;;;;-5.89;57.05;102898.47;6242217;23;20078;-63
2024/01/08 11:16:47;;;;;;;11.77;5.47;;;;;;;-6.57;55.89;102900.03;6242286;23;20116;-63
2024/01/08 11:19:17;;;;;;;22.17;6.20;;;;;;;-6.40;56.87;102900.28;6241657;23;20020;-63